sensor_id;sensor_type;location;lat;lon;timestamp;P1;durP1;ratioP1;P2;durP2;ratioP2
18090;SDS011;9172;49.948;9.208;2023-07-20T00:00:29;2.50;;;1.10;;
18090;SDS011;9172;49.948;9.208;2023-07-20T00:03:10;3.53;;;1.40;;
18090;SDS011;9172;49.948;9.208;2023-07-20T00:05:41;3.40;;;1.50;;
18090;SDS011;9172;49.948;9.208;2023-07-20T00:08:10;4.73;;;1.47;;
18090;SDS011;9172;49.948;9.208;2023-07-20T00:10:40;2.30;;;1.20;;
18090;SDS011;9172;49.948;9.208;2023-07-20T00:13:09;4.57;;;1.40;;
18090;SDS011;9172;49.948;9.208;2023-07-20T00:15:38;4.47;;;1.40;;
18090;SDS011;9172;49.948;9.208;2023-07-20T00:18:07;2.07;;;1.20;;
18090;SDS011;9172;49.948;9.208;2023-07-20T00:20:36;9.70;;;1.60;;
18090;SDS011;9172;49.948;9.208;2023-07-20T00:23:05;5.77;;;1.40;;
18090;SDS011;9172;49.948;9.208;2023-07-20T00:25:36;5.90;;;1.53;;
18090;SDS011;9172;49.948;9.208;2023-07-20T00:28:05;2.80;;;1.60;;
18090;SDS011;9172;49.948;9.208;2023-07-20T00:30:33;5.27;;;1.57;;
18090;SDS011;9172;49.948;9.208;2023-07-20T00:33:03;3.90;;;1.60;;
18090;SDS011;9172;49.948;9.208;2023-07-20T00:35:33;2.70;;;1.00;;
18090;SDS011;9172;49.948;9.208;2023-07-20T00:38:02;2.10;;;1.17;;
18090;SDS011;9172;49.948;9.208;2023-07-20T00:40:35;1.47;;;1.10;;
18090;SDS011;9172;49.948;9.208;2023-07-20T00:43:04;7.47;;;1.50;;
18090;SDS011;9172;49.948;9.208;2023-07-20T00:45:33;7.23;;;1.37;;
18090;SDS011;9172;49.948;9.208;2023-07-20T00:48:04;5.53;;;1.30;;
18090;SDS011;9172;49.948;9.208;2023-07-20T00:50:34;3.63;;;1.50;;
18090;SDS011;9172;49.948;9.208;2023-07-20T00:53:03;2.23;;;1.50;;
18090;SDS011;9172;49.948;9.208;2023-07-20T00:55:32;6.80;;;1.60;;
18090;SDS011;9172;49.948;9.208;2023-07-20T00:58:02;2.33;;;1.30;;
18090;SDS011;9172;49.948;9.208;2023-07-20T01:00:30;2.20;;;1.17;;
18090;SDS011;9172;49.948;9.208;2023-07-20T01:02:59;3.10;;;1.60;;
18090;SDS011;9172;49.948;9.208;2023-07-20T01:05:32;4.17;;;1.47;;
18090;SDS011;9172;49.948;9.208;2023-07-20T01:08:06;2.90;;;1.27;;
18090;SDS011;9172;49.948;9.208;2023-07-20T01:10:38;2.70;;;1.20;;
18090;SDS011;9172;49.948;9.208;2023-07-20T01:13:09;3.33;;;1.30;;
18090;SDS011;9172;49.948;9.208;2023-07-20T01:15:39;3.17;;;1.53;;
18090;SDS011;9172;49.948;9.208;2023-07-20T01:18:08;4.07;;;1.63;;
18090;SDS011;9172;49.948;9.208;2023-07-20T01:20:37;2.57;;;1.30;;
18090;SDS011;9172;49.948;9.208;2023-07-20T01:26:12;5.00;;;1.63;;
18090;SDS011;9172;49.948;9.208;2023-07-20T01:28:50;4.07;;;1.27;;
18090;SDS011;9172;49.948;9.208;2023-07-20T01:31:28;4.03;;;1.27;;
18090;SDS011;9172;49.948;9.208;2023-07-20T01:34:00;6.33;;;1.50;;
18090;SDS011;9172;49.948;9.208;2023-07-20T01:36:33;4.57;;;1.27;;
18090;SDS011;9172;49.948;9.208;2023-07-20T01:39:02;2.67;;;1.80;;
18090;SDS011;9172;49.948;9.208;2023-07-20T01:41:33;3.37;;;1.50;;
18090;SDS011;9172;49.948;9.208;2023-07-20T01:44:03;8.60;;;1.40;;
18090;SDS011;9172;49.948;9.208;2023-07-20T01:46:32;1.83;;;1.20;;
18090;SDS011;9172;49.948;9.208;2023-07-20T01:49:00;1.73;;;1.20;;
18090;SDS011;9172;49.948;9.208;2023-07-20T01:51:30;11.10;;;1.60;;
18090;SDS011;9172;49.948;9.208;2023-07-20T01:53:58;3.40;;;1.40;;
18090;SDS011;9172;49.948;9.208;2023-07-20T01:56:27;3.67;;;1.47;;
18090;SDS011;9172;49.948;9.208;2023-07-20T01:58:57;1.80;;;1.30;;
18090;SDS011;9172;49.948;9.208;2023-07-20T02:01:26;3.43;;;1.33;;
18090;SDS011;9172;49.948;9.208;2023-07-20T02:03:55;3.13;;;1.43;;
18090;SDS011;9172;49.948;9.208;2023-07-20T02:06:24;9.90;;;1.90;;
18090;SDS011;9172;49.948;9.208;2023-07-20T02:08:53;7.67;;;1.60;;
18090;SDS011;9172;49.948;9.208;2023-07-20T02:11:23;2.23;;;1.30;;
18090;SDS011;9172;49.948;9.208;2023-07-20T02:13:52;9.50;;;1.50;;
18090;SDS011;9172;49.948;9.208;2023-07-20T02:16:20;4.13;;;1.47;;
18090;SDS011;9172;49.948;9.208;2023-07-20T02:18:49;4.87;;;1.50;;
18090;SDS011;9172;49.948;9.208;2023-07-20T02:21:17;4.13;;;1.50;;
18090;SDS011;9172;49.948;9.208;2023-07-20T02:23:46;3.60;;;1.57;;
18090;SDS011;9172;49.948;9.208;2023-07-20T02:26:14;3.70;;;1.57;;
18090;SDS011;9172;49.948;9.208;2023-07-20T02:28:45;4.43;;;1.43;;
18090;SDS011;9172;49.948;9.208;2023-07-20T02:31:14;5.60;;;1.67;;
18090;SDS011;9172;49.948;9.208;2023-07-20T02:33:44;3.90;;;1.50;;
18090;SDS011;9172;49.948;9.208;2023-07-20T02:36:14;4.27;;;1.70;;
18090;SDS011;9172;49.948;9.208;2023-07-20T02:38:44;6.73;;;1.80;;
18090;SDS011;9172;49.948;9.208;2023-07-20T02:41:13;4.00;;;1.90;;
18090;SDS011;9172;49.948;9.208;2023-07-20T02:43:42;5.00;;;1.50;;
18090;SDS011;9172;49.948;9.208;2023-07-20T02:46:11;7.07;;;2.10;;
18090;SDS011;9172;49.948;9.208;2023-07-20T02:48:39;9.10;;;1.83;;
18090;SDS011;9172;49.948;9.208;2023-07-20T02:51:08;5.07;;;1.53;;
18090;SDS011;9172;49.948;9.208;2023-07-20T02:53:37;3.60;;;1.70;;
18090;SDS011;9172;49.948;9.208;2023-07-20T02:56:06;7.70;;;2.77;;
18090;SDS011;9172;49.948;9.208;2023-07-20T02:58:34;2.73;;;1.60;;
18090;SDS011;9172;49.948;9.208;2023-07-20T03:01:05;2.67;;;1.63;;
18090;SDS011;9172;49.948;9.208;2023-07-20T03:03:36;3.30;;;1.93;;
18090;SDS011;9172;49.948;9.208;2023-07-20T03:06:05;4.80;;;1.70;;
18090;SDS011;9172;49.948;9.208;2023-07-20T03:08:35;3.63;;;1.50;;
18090;SDS011;9172;49.948;9.208;2023-07-20T03:11:04;4.20;;;1.70;;
18090;SDS011;9172;49.948;9.208;2023-07-20T03:13:33;3.87;;;1.97;;
18090;SDS011;9172;49.948;9.208;2023-07-20T03:16:02;3.00;;;1.67;;
18090;SDS011;9172;49.948;9.208;2023-07-20T03:18:31;7.37;;;1.93;;
18090;SDS011;9172;49.948;9.208;2023-07-20T03:21:00;2.83;;;1.73;;
18090;SDS011;9172;49.948;9.208;2023-07-20T03:23:28;2.63;;;1.70;;
18090;SDS011;9172;49.948;9.208;2023-07-20T03:25:58;5.57;;;2.10;;
18090;SDS011;9172;49.948;9.208;2023-07-20T03:28:27;4.17;;;1.80;;
18090;SDS011;9172;49.948;9.208;2023-07-20T03:30:56;4.47;;;1.70;;
18090;SDS011;9172;49.948;9.208;2023-07-20T03:33:26;4.70;;;1.80;;
18090;SDS011;9172;49.948;9.208;2023-07-20T03:35:57;2.60;;;1.80;;
18090;SDS011;9172;49.948;9.208;2023-07-20T03:38:27;3.13;;;1.63;;
18090;SDS011;9172;49.948;9.208;2023-07-20T03:40:55;3.73;;;1.80;;
18090;SDS011;9172;49.948;9.208;2023-07-20T03:43:26;5.20;;;1.80;;
18090;SDS011;9172;49.948;9.208;2023-07-20T03:45:55;3.03;;;1.60;;
18090;SDS011;9172;49.948;9.208;2023-07-20T03:48:24;6.87;;;2.13;;
18090;SDS011;9172;49.948;9.208;2023-07-20T03:50:53;7.07;;;1.80;;
18090;SDS011;9172;49.948;9.208;2023-07-20T03:53:22;4.43;;;1.80;;
18090;SDS011;9172;49.948;9.208;2023-07-20T03:55:52;4.73;;;2.10;;
18090;SDS011;9172;49.948;9.208;2023-07-20T03:58:21;6.40;;;2.00;;
18090;SDS011;9172;49.948;9.208;2023-07-20T04:00:51;8.97;;;2.20;;
18090;SDS011;9172;49.948;9.208;2023-07-20T04:03:20;7.27;;;2.60;;
18090;SDS011;9172;49.948;9.208;2023-07-20T04:05:53;3.57;;;1.90;;
18090;SDS011;9172;49.948;9.208;2023-07-20T04:08:23;8.03;;;2.33;;
18090;SDS011;9172;49.948;9.208;2023-07-20T04:10:53;5.97;;;1.70;;
18090;SDS011;9172;49.948;9.208;2023-07-20T04:13:21;7.37;;;1.70;;
18090;SDS011;9172;49.948;9.208;2023-07-20T04:15:50;5.30;;;2.33;;
18090;SDS011;9172;49.948;9.208;2023-07-20T04:18:19;5.57;;;2.00;;
18090;SDS011;9172;49.948;9.208;2023-07-20T04:20:48;7.07;;;1.90;;
18090;SDS011;9172;49.948;9.208;2023-07-20T04:23:16;5.47;;;2.10;;
18090;SDS011;9172;49.948;9.208;2023-07-20T04:28:35;5.37;;;2.13;;
18090;SDS011;9172;49.948;9.208;2023-07-20T04:31:10;3.93;;;2.27;;
18090;SDS011;9172;49.948;9.208;2023-07-20T04:33:40;3.83;;;2.17;;
18090;SDS011;9172;49.948;9.208;2023-07-20T04:36:09;4.07;;;1.77;;
18090;SDS011;9172;49.948;9.208;2023-07-20T04:38:40;4.47;;;1.83;;
18090;SDS011;9172;49.948;9.208;2023-07-20T04:41:09;4.30;;;1.93;;
18090;SDS011;9172;49.948;9.208;2023-07-20T04:43:41;2.47;;;1.73;;
18090;SDS011;9172;49.948;9.208;2023-07-20T04:46:10;6.53;;;2.10;;
18090;SDS011;9172;49.948;9.208;2023-07-20T04:48:39;3.87;;;1.80;;
18090;SDS011;9172;49.948;9.208;2023-07-20T04:51:10;6.07;;;2.10;;
18090;SDS011;9172;49.948;9.208;2023-07-20T04:53:39;5.63;;;2.27;;
18090;SDS011;9172;49.948;9.208;2023-07-20T04:56:07;4.43;;;2.00;;
18090;SDS011;9172;49.948;9.208;2023-07-20T04:58:38;5.50;;;2.20;;
18090;SDS011;9172;49.948;9.208;2023-07-20T05:01:07;6.13;;;2.00;;
18090;SDS011;9172;49.948;9.208;2023-07-20T05:03:37;6.13;;;2.07;;
18090;SDS011;9172;49.948;9.208;2023-07-20T05:06:06;7.20;;;2.57;;
18090;SDS011;9172;49.948;9.208;2023-07-20T05:08:35;5.20;;;2.33;;
18090;SDS011;9172;49.948;9.208;2023-07-20T05:11:06;4.20;;;1.80;;
18090;SDS011;9172;49.948;9.208;2023-07-20T05:13:35;2.80;;;1.63;;
18090;SDS011;9172;49.948;9.208;2023-07-20T05:16:05;5.37;;;2.37;;
18090;SDS011;9172;49.948;9.208;2023-07-20T05:18:42;2.83;;;1.87;;
18090;SDS011;9172;49.948;9.208;2023-07-20T05:21:12;3.00;;;1.80;;
18090;SDS011;9172;49.948;9.208;2023-07-20T05:23:41;4.53;;;1.60;;
18090;SDS011;9172;49.948;9.208;2023-07-20T05:26:13;5.93;;;1.67;;
18090;SDS011;9172;49.948;9.208;2023-07-20T05:28:41;4.13;;;1.70;;
18090;SDS011;9172;49.948;9.208;2023-07-20T05:31:10;3.30;;;1.73;;
18090;SDS011;9172;49.948;9.208;2023-07-20T05:33:40;3.90;;;2.07;;
18090;SDS011;9172;49.948;9.208;2023-07-20T05:36:09;7.13;;;2.40;;
18090;SDS011;9172;49.948;9.208;2023-07-20T05:38:38;5.90;;;2.23;;
18090;SDS011;9172;49.948;9.208;2023-07-20T05:41:06;7.37;;;2.27;;
18090;SDS011;9172;49.948;9.208;2023-07-20T05:43:36;4.50;;;2.10;;
18090;SDS011;9172;49.948;9.208;2023-07-20T05:46:05;6.73;;;2.30;;
18090;SDS011;9172;49.948;9.208;2023-07-20T05:48:33;4.77;;;1.53;;
18090;SDS011;9172;49.948;9.208;2023-07-20T05:51:02;3.67;;;1.90;;
18090;SDS011;9172;49.948;9.208;2023-07-20T05:53:32;5.07;;;1.97;;
18090;SDS011;9172;49.948;9.208;2023-07-20T05:56:02;6.17;;;1.83;;
18090;SDS011;9172;49.948;9.208;2023-07-20T05:58:32;3.13;;;1.63;;
18090;SDS011;9172;49.948;9.208;2023-07-20T06:01:01;5.37;;;2.00;;
18090;SDS011;9172;49.948;9.208;2023-07-20T06:03:31;4.67;;;2.20;;
18090;SDS011;9172;49.948;9.208;2023-07-20T06:06:01;4.13;;;1.70;;
18090;SDS011;9172;49.948;9.208;2023-07-20T06:11:07;5.27;;;1.93;;
18090;SDS011;9172;49.948;9.208;2023-07-20T06:13:37;5.83;;;2.00;;
18090;SDS011;9172;49.948;9.208;2023-07-20T06:16:09;3.60;;;1.97;;
18090;SDS011;9172;49.948;9.208;2023-07-20T06:18:37;2.60;;;1.50;;
18090;SDS011;9172;49.948;9.208;2023-07-20T06:21:08;5.47;;;1.80;;
18090;SDS011;9172;49.948;9.208;2023-07-20T06:26:13;24.67;;;3.63;;
18090;SDS011;9172;49.948;9.208;2023-07-20T06:28:42;4.70;;;2.00;;
18090;SDS011;9172;49.948;9.208;2023-07-20T06:31:11;15.20;;;2.20;;
18090;SDS011;9172;49.948;9.208;2023-07-20T06:33:41;4.80;;;1.80;;
18090;SDS011;9172;49.948;9.208;2023-07-20T06:36:10;5.30;;;1.90;;
18090;SDS011;9172;49.948;9.208;2023-07-20T06:38:40;3.33;;;1.93;;
18090;SDS011;9172;49.948;9.208;2023-07-20T06:41:09;6.20;;;2.10;;
18090;SDS011;9172;49.948;9.208;2023-07-20T06:46:13;4.47;;;2.00;;
18090;SDS011;9172;49.948;9.208;2023-07-20T06:48:43;4.03;;;1.60;;
18090;SDS011;9172;49.948;9.208;2023-07-20T06:51:12;4.97;;;1.43;;
18090;SDS011;9172;49.948;9.208;2023-07-20T06:53:40;3.37;;;1.50;;
18090;SDS011;9172;49.948;9.208;2023-07-20T06:56:11;7.03;;;1.60;;
18090;SDS011;9172;49.948;9.208;2023-07-20T06:58:40;6.20;;;2.17;;
18090;SDS011;9172;49.948;9.208;2023-07-20T07:01:09;2.87;;;1.60;;
18090;SDS011;9172;49.948;9.208;2023-07-20T07:03:47;5.73;;;1.77;;
18090;SDS011;9172;49.948;9.208;2023-07-20T07:06:17;2.50;;;1.37;;
18090;SDS011;9172;49.948;9.208;2023-07-20T07:08:48;3.97;;;1.50;;
18090;SDS011;9172;49.948;9.208;2023-07-20T07:11:17;5.43;;;1.90;;
18090;SDS011;9172;49.948;9.208;2023-07-20T07:13:47;4.67;;;1.60;;
18090;SDS011;9172;49.948;9.208;2023-07-20T07:16:17;4.53;;;2.37;;
18090;SDS011;9172;49.948;9.208;2023-07-20T07:18:47;4.80;;;1.80;;
18090;SDS011;9172;49.948;9.208;2023-07-20T07:21:17;3.13;;;1.80;;
18090;SDS011;9172;49.948;9.208;2023-07-20T07:23:45;11.87;;;2.30;;
18090;SDS011;9172;49.948;9.208;2023-07-20T07:26:16;5.37;;;2.03;;
18090;SDS011;9172;49.948;9.208;2023-07-20T07:28:46;5.83;;;1.70;;
18090;SDS011;9172;49.948;9.208;2023-07-20T07:31:14;11.00;;;1.97;;
18090;SDS011;9172;49.948;9.208;2023-07-20T07:36:25;6.67;;;2.00;;
18090;SDS011;9172;49.948;9.208;2023-07-20T07:38:53;4.33;;;2.07;;
18090;SDS011;9172;49.948;9.208;2023-07-20T07:41:23;5.10;;;2.20;;
18090;SDS011;9172;49.948;9.208;2023-07-20T07:43:54;2.83;;;1.73;;
18090;SDS011;9172;49.948;9.208;2023-07-20T07:46:24;2.90;;;1.53;;
18090;SDS011;9172;49.948;9.208;2023-07-20T07:48:53;4.27;;;1.63;;
18090;SDS011;9172;49.948;9.208;2023-07-20T07:51:22;6.90;;;1.97;;
18090;SDS011;9172;49.948;9.208;2023-07-20T07:53:51;5.00;;;2.13;;
18090;SDS011;9172;49.948;9.208;2023-07-20T07:56:20;4.37;;;1.93;;
18090;SDS011;9172;49.948;9.208;2023-07-20T07:58:49;6.27;;;2.00;;
18090;SDS011;9172;49.948;9.208;2023-07-20T08:01:18;5.03;;;1.57;;
18090;SDS011;9172;49.948;9.208;2023-07-20T08:03:48;4.60;;;1.37;;
18090;SDS011;9172;49.948;9.208;2023-07-20T08:06:19;4.57;;;2.13;;
18090;SDS011;9172;49.948;9.208;2023-07-20T08:08:48;5.30;;;1.93;;
18090;SDS011;9172;49.948;9.208;2023-07-20T08:11:16;4.27;;;1.90;;
18090;SDS011;9172;49.948;9.208;2023-07-20T08:13:45;3.63;;;1.70;;
18090;SDS011;9172;49.948;9.208;2023-07-20T08:16:14;6.33;;;2.00;;
18090;SDS011;9172;49.948;9.208;2023-07-20T08:18:43;3.67;;;1.53;;
18090;SDS011;9172;49.948;9.208;2023-07-20T08:21:13;2.40;;;1.30;;
18090;SDS011;9172;49.948;9.208;2023-07-20T08:23:42;5.87;;;1.93;;
18090;SDS011;9172;49.948;9.208;2023-07-20T08:26:11;2.17;;;1.33;;
18090;SDS011;9172;49.948;9.208;2023-07-20T08:28:40;2.60;;;1.40;;
18090;SDS011;9172;49.948;9.208;2023-07-20T08:31:09;3.03;;;1.50;;
18090;SDS011;9172;49.948;9.208;2023-07-20T08:33:38;3.43;;;2.00;;
18090;SDS011;9172;49.948;9.208;2023-07-20T08:36:09;4.33;;;1.57;;
18090;SDS011;9172;49.948;9.208;2023-07-20T08:38:38;3.87;;;1.40;;
18090;SDS011;9172;49.948;9.208;2023-07-20T08:41:06;3.20;;;1.70;;
18090;SDS011;9172;49.948;9.208;2023-07-20T08:43:36;6.37;;;1.90;;
18090;SDS011;9172;49.948;9.208;2023-07-20T08:46:08;4.63;;;1.80;;
18090;SDS011;9172;49.948;9.208;2023-07-20T08:48:38;5.20;;;1.47;;
18090;SDS011;9172;49.948;9.208;2023-07-20T08:51:08;7.60;;;1.57;;
18090;SDS011;9172;49.948;9.208;2023-07-20T08:53:40;3.00;;;1.40;;
18090;SDS011;9172;49.948;9.208;2023-07-20T08:56:09;2.43;;;1.80;;
18090;SDS011;9172;49.948;9.208;2023-07-20T08:58:38;6.37;;;2.03;;
18090;SDS011;9172;49.948;9.208;2023-07-20T09:01:09;8.37;;;2.87;;
18090;SDS011;9172;49.948;9.208;2023-07-20T09:03:39;6.00;;;1.70;;
18090;SDS011;9172;49.948;9.208;2023-07-20T09:06:09;3.03;;;1.50;;
18090;SDS011;9172;49.948;9.208;2023-07-20T09:08:38;4.33;;;1.73;;
18090;SDS011;9172;49.948;9.208;2023-07-20T09:11:07;4.27;;;1.60;;
18090;SDS011;9172;49.948;9.208;2023-07-20T09:13:38;3.70;;;1.40;;
18090;SDS011;9172;49.948;9.208;2023-07-20T09:16:07;3.83;;;1.33;;
18090;SDS011;9172;49.948;9.208;2023-07-20T09:18:36;2.77;;;1.50;;
18090;SDS011;9172;49.948;9.208;2023-07-20T09:21:05;1.60;;;1.20;;
18090;SDS011;9172;49.948;9.208;2023-07-20T09:23:35;4.77;;;1.20;;
18090;SDS011;9172;49.948;9.208;2023-07-20T09:26:09;4.00;;;1.50;;
18090;SDS011;9172;49.948;9.208;2023-07-20T09:28:42;2.23;;;1.33;;
18090;SDS011;9172;49.948;9.208;2023-07-20T09:31:15;1.63;;;1.10;;
18090;SDS011;9172;49.948;9.208;2023-07-20T09:33:45;5.27;;;1.30;;
18090;SDS011;9172;49.948;9.208;2023-07-20T09:36:15;7.80;;;1.37;;
18090;SDS011;9172;49.948;9.208;2023-07-20T09:38:43;2.57;;;1.30;;
18090;SDS011;9172;49.948;9.208;2023-07-20T09:41:13;1.90;;;1.20;;
18090;SDS011;9172;49.948;9.208;2023-07-20T09:43:43;3.13;;;1.27;;
18090;SDS011;9172;49.948;9.208;2023-07-20T09:46:13;3.97;;;1.70;;
18090;SDS011;9172;49.948;9.208;2023-07-20T09:48:48;3.17;;;1.27;;
18090;SDS011;9172;49.948;9.208;2023-07-20T09:51:20;4.23;;;1.60;;
18090;SDS011;9172;49.948;9.208;2023-07-20T09:53:51;2.60;;;1.40;;
18090;SDS011;9172;49.948;9.208;2023-07-20T09:56:21;4.43;;;1.83;;
18090;SDS011;9172;49.948;9.208;2023-07-20T09:58:52;1.77;;;1.03;;
18090;SDS011;9172;49.948;9.208;2023-07-20T10:01:21;2.97;;;1.77;;
18090;SDS011;9172;49.948;9.208;2023-07-20T10:03:51;1.20;;;1.03;;
18090;SDS011;9172;49.948;9.208;2023-07-20T10:06:23;3.47;;;1.23;;
18090;SDS011;9172;49.948;9.208;2023-07-20T10:08:54;3.03;;;1.20;;
18090;SDS011;9172;49.948;9.208;2023-07-20T10:11:25;1.93;;;1.03;;
18090;SDS011;9172;49.948;9.208;2023-07-20T10:13:57;1.57;;;0.83;;
18090;SDS011;9172;49.948;9.208;2023-07-20T10:16:29;2.47;;;1.03;;
18090;SDS011;9172;49.948;9.208;2023-07-20T10:19:03;2.30;;;1.00;;
18090;SDS011;9172;49.948;9.208;2023-07-20T10:21:35;2.30;;;1.57;;
18090;SDS011;9172;49.948;9.208;2023-07-20T10:24:06;2.03;;;1.20;;
18090;SDS011;9172;49.948;9.208;2023-07-20T10:26:37;2.10;;;1.20;;
18090;SDS011;9172;49.948;9.208;2023-07-20T10:29:06;3.93;;;1.30;;
18090;SDS011;9172;49.948;9.208;2023-07-20T10:31:36;3.37;;;1.17;;
18090;SDS011;9172;49.948;9.208;2023-07-20T10:34:06;1.90;;;1.10;;
18090;SDS011;9172;49.948;9.208;2023-07-20T10:36:43;2.40;;;1.47;;
18090;SDS011;9172;49.948;9.208;2023-07-20T10:39:22;5.37;;;1.40;;
18090;SDS011;9172;49.948;9.208;2023-07-20T10:42:00;3.03;;;1.30;;
18090;SDS011;9172;49.948;9.208;2023-07-20T10:44:29;1.90;;;1.30;;
18090;SDS011;9172;49.948;9.208;2023-07-20T10:46:59;3.30;;;1.40;;
18090;SDS011;9172;49.948;9.208;2023-07-20T10:49:29;1.93;;;1.00;;
18090;SDS011;9172;49.948;9.208;2023-07-20T10:51:59;3.73;;;1.37;;
18090;SDS011;9172;49.948;9.208;2023-07-20T10:54:35;2.57;;;1.20;;
18090;SDS011;9172;49.948;9.208;2023-07-20T10:57:24;1.70;;;1.20;;
18090;SDS011;9172;49.948;9.208;2023-07-20T11:00:11;3.37;;;1.50;;
18090;SDS011;9172;49.948;9.208;2023-07-20T11:02:42;3.93;;;1.23;;
18090;SDS011;9172;49.948;9.208;2023-07-20T11:08:03;2.27;;;1.20;;
18090;SDS011;9172;49.948;9.208;2023-07-20T11:10:33;3.00;;;1.23;;
18090;SDS011;9172;49.948;9.208;2023-07-20T11:13:21;1.90;;;1.07;;
18090;SDS011;9172;49.948;9.208;2023-07-20T11:16:04;5.70;;;1.60;;
18090;SDS011;9172;49.948;9.208;2023-07-20T11:18:36;1.73;;;1.00;;
18090;SDS011;9172;49.948;9.208;2023-07-20T11:21:07;2.37;;;1.10;;
18090;SDS011;9172;49.948;9.208;2023-07-20T11:23:38;3.30;;;1.30;;
18090;SDS011;9172;49.948;9.208;2023-07-20T11:26:07;3.80;;;1.37;;
18090;SDS011;9172;49.948;9.208;2023-07-20T11:28:36;3.37;;;1.23;;
18090;SDS011;9172;49.948;9.208;2023-07-20T11:31:05;4.37;;;1.80;;
18090;SDS011;9172;49.948;9.208;2023-07-20T11:33:35;2.80;;;1.30;;
18090;SDS011;9172;49.948;9.208;2023-07-20T11:36:05;5.93;;;1.60;;
18090;SDS011;9172;49.948;9.208;2023-07-20T11:38:36;2.10;;;1.30;;
18090;SDS011;9172;49.948;9.208;2023-07-20T11:41:05;1.20;;;1.00;;
18090;SDS011;9172;49.948;9.208;2023-07-20T11:43:34;7.67;;;1.37;;
18090;SDS011;9172;49.948;9.208;2023-07-20T11:46:05;4.23;;;1.40;;
18090;SDS011;9172;49.948;9.208;2023-07-20T11:48:35;1.47;;;1.07;;
18090;SDS011;9172;49.948;9.208;2023-07-20T11:51:06;4.27;;;1.20;;
18090;SDS011;9172;49.948;9.208;2023-07-20T11:53:37;4.17;;;1.50;;
18090;SDS011;9172;49.948;9.208;2023-07-20T11:56:06;1.33;;;1.07;;
18090;SDS011;9172;49.948;9.208;2023-07-20T11:58:36;4.63;;;1.33;;
18090;SDS011;9172;49.948;9.208;2023-07-20T12:01:09;3.57;;;1.30;;
18090;SDS011;9172;49.948;9.208;2023-07-20T12:03:38;1.77;;;1.13;;
18090;SDS011;9172;49.948;9.208;2023-07-20T12:06:08;2.53;;;1.40;;
18090;SDS011;9172;49.948;9.208;2023-07-20T12:08:41;2.27;;;1.17;;
18090;SDS011;9172;49.948;9.208;2023-07-20T12:11:11;3.93;;;1.37;;
18090;SDS011;9172;49.948;9.208;2023-07-20T12:13:42;4.45;;;1.32;;
18090;SDS011;9172;49.948;9.208;2023-07-20T12:16:11;5.43;;;1.27;;
18090;SDS011;9172;49.948;9.208;2023-07-20T12:18:41;1.57;;;1.00;;
18090;SDS011;9172;49.948;9.208;2023-07-20T12:21:09;4.83;;;1.53;;
18090;SDS011;9172;49.948;9.208;2023-07-20T12:23:39;1.73;;;1.30;;
18090;SDS011;9172;49.948;9.208;2023-07-20T12:26:09;3.20;;;1.30;;
18090;SDS011;9172;49.948;9.208;2023-07-20T12:28:40;4.50;;;1.40;;
18090;SDS011;9172;49.948;9.208;2023-07-20T12:31:10;2.97;;;1.20;;
18090;SDS011;9172;49.948;9.208;2023-07-20T12:33:39;4.07;;;1.20;;
18090;SDS011;9172;49.948;9.208;2023-07-20T12:36:08;8.40;;;1.42;;
18090;SDS011;9172;49.948;9.208;2023-07-20T12:38:37;5.85;;;1.27;;
18090;SDS011;9172;49.948;9.208;2023-07-20T12:41:09;1.90;;;1.20;;
18090;SDS011;9172;49.948;9.208;2023-07-20T12:43:40;3.57;;;1.40;;
18090;SDS011;9172;49.948;9.208;2023-07-20T12:46:09;2.43;;;1.27;;
18090;SDS011;9172;49.948;9.208;2023-07-20T12:48:39;1.87;;;1.03;;
18090;SDS011;9172;49.948;9.208;2023-07-20T12:51:09;1.37;;;1.07;;
18090;SDS011;9172;49.948;9.208;2023-07-20T12:53:38;1.63;;;1.27;;
18090;SDS011;9172;49.948;9.208;2023-07-20T12:56:08;4.62;;;1.67;;
18090;SDS011;9172;49.948;9.208;2023-07-20T12:58:37;3.75;;;1.50;;
18090;SDS011;9172;49.948;9.208;2023-07-20T13:01:06;2.60;;;1.10;;
18090;SDS011;9172;49.948;9.208;2023-07-20T13:03:36;4.30;;;1.57;;
18090;SDS011;9172;49.948;9.208;2023-07-20T13:06:05;2.02;;;1.15;;
18090;SDS011;9172;49.948;9.208;2023-07-20T13:08:34;2.17;;;1.05;;
18090;SDS011;9172;49.948;9.208;2023-07-20T13:11:04;5.47;;;1.15;;
18090;SDS011;9172;49.948;9.208;2023-07-20T13:13:34;2.77;;;1.30;;
18090;SDS011;9172;49.948;9.208;2023-07-20T13:16:03;5.03;;;1.15;;
18090;SDS011;9172;49.948;9.208;2023-07-20T13:18:32;4.42;;;1.75;;
18090;SDS011;9172;49.948;9.208;2023-07-20T13:21:00;3.80;;;1.50;;
18090;SDS011;9172;49.948;9.208;2023-07-20T13:23:30;2.37;;;1.07;;
18090;SDS011;9172;49.948;9.208;2023-07-20T13:26:00;1.50;;;1.00;;
18090;SDS011;9172;49.948;9.208;2023-07-20T13:28:29;3.23;;;1.33;;
18090;SDS011;9172;49.948;9.208;2023-07-20T13:30:58;2.08;;;1.05;;
18090;SDS011;9172;49.948;9.208;2023-07-20T13:33:28;2.05;;;1.05;;
18090;SDS011;9172;49.948;9.208;2023-07-20T13:35:57;4.40;;;1.27;;
18090;SDS011;9172;49.948;9.208;2023-07-20T13:38:25;2.80;;;1.27;;
18090;SDS011;9172;49.948;9.208;2023-07-20T13:40:54;5.78;;;1.50;;
18090;SDS011;9172;49.948;9.208;2023-07-20T13:43:24;3.20;;;1.20;;
18090;SDS011;9172;49.948;9.208;2023-07-20T13:45:55;3.07;;;0.80;;
18090;SDS011;9172;49.948;9.208;2023-07-20T13:48:25;4.47;;;1.50;;
18090;SDS011;9172;49.948;9.208;2023-07-20T13:50:54;3.92;;;1.00;;
18090;SDS011;9172;49.948;9.208;2023-07-20T13:53:25;2.60;;;1.03;;
18090;SDS011;9172;49.948;9.208;2023-07-20T13:55:55;2.07;;;1.10;;
18090;SDS011;9172;49.948;9.208;2023-07-20T13:58:25;4.45;;;1.50;;
18090;SDS011;9172;49.948;9.208;2023-07-20T14:00:55;2.02;;;1.05;;
18090;SDS011;9172;49.948;9.208;2023-07-20T14:03:25;2.55;;;1.20;;
18090;SDS011;9172;49.948;9.208;2023-07-20T14:05:54;2.25;;;1.00;;
18090;SDS011;9172;49.948;9.208;2023-07-20T14:08:23;0.95;;;0.80;;
18090;SDS011;9172;49.948;9.208;2023-07-20T14:10:53;1.70;;;0.88;;
18090;SDS011;9172;49.948;9.208;2023-07-20T14:13:22;1.72;;;1.02;;
18090;SDS011;9172;49.948;9.208;2023-07-20T14:15:52;3.05;;;1.10;;
18090;SDS011;9172;49.948;9.208;2023-07-20T14:18:21;5.83;;;1.10;;
18090;SDS011;9172;49.948;9.208;2023-07-20T14:20:52;1.35;;;0.98;;
18090;SDS011;9172;49.948;9.208;2023-07-20T14:23:20;1.62;;;1.20;;
18090;SDS011;9172;49.948;9.208;2023-07-20T14:25:49;3.05;;;1.67;;
18090;SDS011;9172;49.948;9.208;2023-07-20T14:28:18;8.08;;;1.75;;
18090;SDS011;9172;49.948;9.208;2023-07-20T14:30:47;3.02;;;1.42;;
18090;SDS011;9172;49.948;9.208;2023-07-20T14:33:15;2.20;;;1.10;;
18090;SDS011;9172;49.948;9.208;2023-07-20T14:35:46;2.37;;;1.00;;
18090;SDS011;9172;49.948;9.208;2023-07-20T14:38:15;1.20;;;1.07;;
18090;SDS011;9172;49.948;9.208;2023-07-20T14:40:43;2.90;;;1.37;;
18090;SDS011;9172;49.948;9.208;2023-07-20T14:43:13;2.03;;;0.90;;
18090;SDS011;9172;49.948;9.208;2023-07-20T14:45:41;3.50;;;1.20;;
18090;SDS011;9172;49.948;9.208;2023-07-20T14:48:11;2.73;;;1.00;;
18090;SDS011;9172;49.948;9.208;2023-07-20T14:50:40;2.02;;;1.15;;
18090;SDS011;9172;49.948;9.208;2023-07-20T14:53:11;5.30;;;1.47;;
18090;SDS011;9172;49.948;9.208;2023-07-20T14:55:41;4.77;;;1.43;;
18090;SDS011;9172;49.948;9.208;2023-07-20T14:58:10;3.90;;;1.33;;
18090;SDS011;9172;49.948;9.208;2023-07-20T15:00:39;5.55;;;1.30;;
18090;SDS011;9172;49.948;9.208;2023-07-20T15:03:08;1.42;;;1.10;;
18090;SDS011;9172;49.948;9.208;2023-07-20T15:05:36;2.98;;;1.40;;
18090;SDS011;9172;49.948;9.208;2023-07-20T15:08:07;6.47;;;1.32;;
18090;SDS011;9172;49.948;9.208;2023-07-20T15:10:36;1.65;;;1.15;;
18090;SDS011;9172;49.948;9.208;2023-07-20T15:13:05;3.58;;;1.10;;
18090;SDS011;9172;49.948;9.208;2023-07-20T15:15:33;5.20;;;1.50;;
18090;SDS011;9172;49.948;9.208;2023-07-20T15:18:03;2.52;;;1.10;;
18090;SDS011;9172;49.948;9.208;2023-07-20T15:20:33;3.85;;;1.37;;
18090;SDS011;9172;49.948;9.208;2023-07-20T15:23:01;3.58;;;1.20;;
18090;SDS011;9172;49.948;9.208;2023-07-20T15:25:30;3.15;;;1.10;;
18090;SDS011;9172;49.948;9.208;2023-07-20T15:28:00;2.50;;;0.95;;
18090;SDS011;9172;49.948;9.208;2023-07-20T15:30:29;1.67;;;0.95;;
18090;SDS011;9172;49.948;9.208;2023-07-20T15:32:57;8.73;;;1.70;;
18090;SDS011;9172;49.948;9.208;2023-07-20T15:35:27;2.37;;;1.20;;